createdAt,value
2024-01-17T00:00:38.800Z,15.05
2024-01-17T00:03:05.401Z,15.57
2024-01-17T00:05:31.921Z,13.95
2024-01-17T00:07:58.522Z,14.25
2024-01-17T00:10:25.555Z,15.32
2024-01-17T00:12:52.109Z,15.57
2024-01-17T00:15:21.248Z,13.30
2024-01-17T00:17:50.891Z,15.73
2024-01-17T00:20:18.147Z,14.45
2024-01-17T00:22:45.544Z,14.02
2024-01-17T00:25:12.240Z,14.25
2024-01-17T00:27:39.533Z,15.68
2024-01-17T00:30:07.624Z,14.82
2024-01-17T00:32:35.705Z,15.57
2024-01-17T00:35:03.857Z,16.23
2024-01-17T00:37:30.669Z,15.60
2024-01-17T00:39:57.182Z,14.40
2024-01-17T00:42:23.623Z,14.80
2024-01-17T00:44:50.101Z,15.50
2024-01-17T00:47:16.564Z,15.40
2024-01-17T00:49:43.106Z,14.77
2024-01-17T00:52:11.028Z,14.57
2024-01-17T00:54:37.530Z,14.75
2024-01-17T00:57:04.902Z,15.85
2024-01-17T00:59:31.797Z,16.17
2024-01-17T01:01:58.478Z,15.18
2024-01-17T01:04:24.940Z,17.65
2024-01-17T01:06:51.411Z,18.83
2024-01-17T01:09:17.956Z,18.02
2024-01-17T01:11:44.600Z,18.13
2024-01-17T01:14:11.150Z,18.88
2024-01-17T01:16:37.590Z,17.50
2024-01-17T01:19:05.848Z,15.30
2024-01-17T01:21:32.634Z,16.52
2024-01-17T01:23:59.362Z,17.77
2024-01-17T01:26:25.940Z,17.52
2024-01-17T01:28:52.438Z,16.98
2024-01-17T01:31:18.993Z,18.83
2024-01-17T01:33:45.566Z,18.55
2024-01-17T01:36:12.178Z,17.58
2024-01-17T01:38:38.679Z,19.02
2024-01-17T01:41:05.200Z,18.17
2024-01-17T01:43:31.847Z,18.38
2024-01-17T01:46:11.693Z,17.50
2024-01-17T01:48:39.015Z,17.60
2024-01-17T01:51:05.761Z,19.48
2024-01-17T01:53:33.968Z,18.55
2024-01-17T01:56:01.423Z,18.92
2024-01-17T01:58:30.696Z,18.55
2024-01-17T02:00:57.988Z,18.33
2024-01-17T02:03:25.584Z,19.02
2024-01-17T02:05:52.264Z,20.08
2024-01-17T02:08:19.144Z,19.65
2024-01-17T02:10:45.639Z,21.38
2024-01-17T02:13:12.586Z,21.55
2024-01-17T02:15:39.103Z,21.05
2024-01-17T02:18:06.271Z,21.15
2024-01-17T02:20:33.297Z,20.70
2024-01-17T02:22:59.930Z,21.00
2024-01-17T02:25:26.469Z,21.00
2024-01-17T02:27:52.960Z,21.67
2024-01-17T02:30:19.586Z,19.73
2024-01-17T02:32:46.724Z,21.40
2024-01-17T02:35:13.583Z,22.05
2024-01-17T02:37:40.031Z,22.20
2024-01-17T02:40:06.787Z,22.55
2024-01-17T02:42:33.257Z,21.50
2024-01-17T02:44:59.803Z,22.27
2024-01-17T02:47:26.470Z,22.10
2024-01-17T02:49:53.266Z,20.77
2024-01-17T02:52:19.789Z,22.88
2024-01-17T02:54:46.309Z,20.63
2024-01-17T02:57:12.936Z,21.48
2024-01-17T02:59:39.502Z,19.77
2024-01-17T03:02:06.106Z,21.95
2024-01-17T03:04:32.693Z,21.45
2024-01-17T03:06:59.390Z,21.80
2024-01-17T03:09:26.365Z,20.73
2024-01-17T03:11:53.246Z,20.80
2024-01-17T03:14:19.768Z,20.77
2024-01-17T03:16:46.347Z,20.20
2024-01-17T03:19:15.439Z,19.45
2024-01-17T03:21:47.619Z,18.90
2024-01-17T03:24:14.388Z,20.48
2024-01-17T03:26:41.166Z,20.33
2024-01-17T03:29:07.723Z,20.15
2024-01-17T03:31:34.303Z,20.20
2024-01-17T03:34:00.927Z,20.10
2024-01-17T03:36:27.620Z,19.85
2024-01-17T03:38:55.886Z,19.33
2024-01-17T03:41:22.953Z,19.38
2024-01-17T03:43:51.390Z,18.85
2024-01-17T03:46:17.862Z,19.98
2024-01-17T03:48:44.507Z,19.98
2024-01-17T03:51:11.200Z,18.55
2024-01-17T03:53:37.957Z,17.38
2024-01-17T03:56:04.702Z,17.92
2024-01-17T03:58:34.049Z,17.70
2024-01-17T04:01:02.809Z,19.67
2024-01-17T04:03:29.463Z,20.42
2024-01-17T04:05:56.024Z,20.38
2024-01-17T04:08:22.532Z,20.20
2024-01-17T04:10:48.985Z,21.75
2024-01-17T04:13:15.559Z,21.77
2024-01-17T04:15:43.600Z,22.42
2024-01-17T04:18:10.241Z,25.38
2024-01-17T04:20:36.933Z,22.58
2024-01-17T04:23:10.197Z,18.13
2024-01-17T04:25:37.012Z,19.10
2024-01-17T04:28:07.451Z,23.52
2024-01-17T04:30:34.742Z,20.75
2024-01-17T04:33:02.216Z,20.17
2024-01-17T04:35:28.774Z,18.02
2024-01-17T04:37:55.220Z,14.93
2024-01-17T04:40:21.880Z,14.35
2024-01-17T04:42:50.059Z,15.52
2024-01-17T04:45:19.869Z,13.80
2024-01-17T04:47:46.514Z,13.00
2024-01-17T04:50:13.799Z,16.05
2024-01-17T04:52:41.096Z,12.73
2024-01-17T04:55:10.377Z,13.98
2024-01-17T04:57:36.843Z,15.07
2024-01-17T05:00:05.748Z,15.32
2024-01-17T05:02:32.303Z,15.57
2024-01-17T05:04:58.811Z,14.90
2024-01-17T05:07:25.471Z,21.02
2024-01-17T05:09:51.941Z,18.02
2024-01-17T05:12:18.481Z,17.77
2024-01-17T05:14:44.953Z,16.85
2024-01-17T05:17:11.580Z,16.65
2024-01-17T05:19:39.115Z,12.13
2024-01-17T05:22:05.659Z,12.60
2024-01-17T05:24:33.291Z,11.82
2024-01-17T05:27:00.386Z,13.23
2024-01-17T05:29:26.956Z,11.50
2024-01-17T05:31:53.598Z,12.90
2024-01-17T05:34:20.066Z,11.95
2024-01-17T05:36:46.569Z,12.23
2024-01-17T05:39:13.664Z,13.45
2024-01-17T05:41:40.337Z,12.48
2024-01-17T05:44:06.780Z,13.45
2024-01-17T05:46:34.187Z,12.00
2024-01-17T05:49:00.763Z,13.30
2024-01-17T05:51:27.464Z,12.95
2024-01-17T05:53:54.005Z,13.65
2024-01-17T05:56:20.510Z,14.52
2024-01-17T05:58:46.968Z,14.93
2024-01-17T06:01:13.472Z,16.23
2024-01-17T06:03:40.049Z,16.67
2024-01-17T06:06:06.733Z,18.77
2024-01-17T06:08:33.225Z,20.27
2024-01-17T06:10:59.913Z,21.92
2024-01-17T06:13:26.532Z,22.27
2024-01-17T06:15:53.002Z,23.35
2024-01-17T06:18:19.565Z,25.58
2024-01-17T06:20:46.113Z,22.35
2024-01-17T06:23:12.681Z,23.42
2024-01-17T06:25:39.113Z,23.45
2024-01-17T06:28:05.710Z,21.67
2024-01-17T06:30:32.214Z,22.15
2024-01-17T06:32:58.794Z,20.98
2024-01-17T06:35:25.300Z,21.55
2024-01-17T06:37:51.746Z,22.45
2024-01-17T06:40:18.176Z,21.42
2024-01-17T06:42:44.649Z,21.88
2024-01-17T06:45:12.023Z,22.48
2024-01-17T06:47:39.117Z,20.55
2024-01-17T06:50:06.073Z,20.42
2024-01-17T06:52:32.627Z,21.15
2024-01-17T06:54:59.100Z,22.05
2024-01-17T06:57:25.537Z,22.27
2024-01-17T06:59:52.290Z,20.48
2024-01-17T07:02:18.785Z,22.10
2024-01-17T07:04:45.402Z,20.92
2024-01-17T07:07:11.895Z,22.10
2024-01-17T07:09:38.399Z,20.98
2024-01-17T07:12:06.622Z,21.75
2024-01-17T07:14:33.286Z,21.73
2024-01-17T07:16:59.800Z,21.67
2024-01-17T07:19:26.326Z,21.33
2024-01-17T07:21:52.787Z,20.83
2024-01-17T07:24:20.048Z,21.13
2024-01-17T07:26:46.586Z,20.13
2024-01-17T07:29:13.092Z,20.45
2024-01-17T07:31:39.974Z,20.25
2024-01-17T07:34:06.728Z,19.67
2024-01-17T07:36:33.283Z,20.63
2024-01-17T07:38:59.827Z,21.27
2024-01-17T07:41:26.435Z,20.83
2024-01-17T07:43:52.922Z,20.20
2024-01-17T07:46:19.479Z,19.02
2024-01-17T07:48:46.263Z,18.80
2024-01-17T07:51:14.607Z,19.23
2024-01-17T07:53:41.146Z,20.42
2024-01-17T07:56:07.642Z,19.48
2024-01-17T07:58:34.096Z,22.52
2024-01-17T08:01:00.820Z,19.60
2024-01-17T08:03:31.069Z,17.75
2024-01-17T08:05:58.263Z,20.38
2024-01-17T08:08:24.852Z,20.45
2024-01-17T08:10:51.389Z,23.10
2024-01-17T08:13:18.463Z,22.50
2024-01-17T08:15:44.961Z,22.75
2024-01-17T08:18:12.202Z,20.35
2024-01-17T08:20:39.813Z,21.13
2024-01-17T08:23:07.003Z,21.33
2024-01-17T08:25:33.529Z,20.60
2024-01-17T08:28:00.765Z,21.35
2024-01-17T08:30:27.991Z,23.40
2024-01-17T08:32:55.032Z,22.25
2024-01-17T08:35:21.633Z,20.95
2024-01-17T08:37:48.240Z,22.40
2024-01-17T08:40:14.859Z,22.48
2024-01-17T08:42:44.888Z,22.30
2024-01-17T08:45:12.121Z,22.50
2024-01-17T08:47:39.551Z,21.35
2024-01-17T08:50:07.763Z,22.45
2024-01-17T08:52:34.724Z,22.63
2024-01-17T08:55:03.525Z,23.05
2024-01-17T08:57:30.003Z,22.38
2024-01-17T08:59:56.565Z,23.50
2024-01-17T09:02:23.084Z,22.23
2024-01-17T09:04:49.571Z,21.90
2024-01-17T09:07:16.117Z,19.65
2024-01-17T09:09:42.694Z,19.95
2024-01-17T09:12:09.892Z,20.83
2024-01-17T09:14:36.495Z,21.45
2024-01-17T09:17:05.061Z,21.13
2024-01-17T09:19:33.368Z,16.98
2024-01-17T09:22:00.137Z,17.05
2024-01-17T09:24:26.675Z,17.08
2024-01-17T09:26:53.791Z,16.35
2024-01-17T09:29:20.875Z,17.48
2024-01-17T09:31:49.202Z,18.35
2024-01-17T09:34:16.316Z,17.17
2024-01-17T09:36:43.047Z,16.83
2024-01-17T09:39:09.706Z,17.25
2024-01-17T09:41:36.419Z,17.17
2024-01-17T09:44:04.244Z,18.33
2024-01-17T09:46:35.672Z,17.92
2024-01-17T09:51:34.077Z,17.95
2024-01-17T09:54:05.741Z,19.17
2024-01-17T09:56:33.791Z,17.95
2024-01-17T09:59:15.125Z,20.45
2024-01-17T10:01:42.437Z,18.65
2024-01-17T10:04:12.542Z,16.67
2024-01-17T10:06:41.091Z,16.55
2024-01-17T10:09:08.760Z,15.73
2024-01-17T10:11:35.488Z,16.83
2024-01-17T10:14:02.340Z,16.65
2024-01-17T10:16:32.378Z,16.27
2024-01-17T10:19:01.193Z,16.90
2024-01-17T10:21:27.723Z,17.70
2024-01-17T10:23:55.386Z,16.15
2024-01-17T10:26:22.432Z,15.95
2024-01-17T10:28:48.884Z,14.23
2024-01-17T10:31:15.585Z,16.83
2024-01-17T10:33:43.223Z,15.82
2024-01-17T10:36:09.964Z,15.50
2024-01-17T10:38:36.611Z,15.95
2024-01-17T10:41:07.338Z,14.88
2024-01-17T10:43:34.825Z,14.80
2024-01-17T10:46:10.684Z,17.20
2024-01-17T10:48:38.077Z,16.15
2024-01-17T10:51:05.687Z,17.77
2024-01-17T10:53:44.250Z,18.20
2024-01-17T10:56:19.485Z,16.13
2024-01-17T10:58:50.596Z,17.45
2024-01-17T11:01:32.958Z,16.55
2024-01-17T11:04:08.463Z,17.63
2024-01-17T11:06:36.769Z,16.73
2024-01-17T11:09:03.356Z,15.60
2024-01-17T11:11:30.316Z,14.18
2024-01-17T11:13:56.896Z,14.65
2024-01-17T11:16:24.118Z,13.30
2024-01-17T11:18:51.325Z,13.65
2024-01-17T11:21:22.068Z,12.40
2024-01-17T11:24:01.849Z,12.10
2024-01-17T11:26:54.713Z,13.10
2024-01-17T11:29:28.987Z,12.82
2024-01-17T11:32:08.877Z,12.65
2024-01-17T11:34:36.088Z,12.70
2024-01-17T11:37:02.743Z,12.48
2024-01-17T11:39:29.244Z,12.43
2024-01-17T11:41:56.016Z,13.52
2024-01-17T11:44:24.113Z,12.90
2024-01-17T11:46:52.834Z,12.85
2024-01-17T11:49:42.950Z,13.20
2024-01-17T11:52:28.008Z,14.15
2024-01-17T11:54:55.583Z,13.05
2024-01-17T11:57:22.352Z,12.55
2024-01-17T12:00:08.982Z,11.18
2024-01-17T12:02:38.240Z,11.65
2024-01-17T12:05:06.911Z,11.50
2024-01-17T12:07:38.249Z,12.18
2024-01-17T12:12:43.674Z,11.85
2024-01-17T12:15:11.319Z,12.18
2024-01-17T12:17:39.237Z,14.27
2024-01-17T12:20:08.030Z,14.52
2024-01-17T12:22:35.360Z,13.93
2024-01-17T12:25:02.313Z,14.15
2024-01-17T12:27:32.351Z,15.35
2024-01-17T12:30:03.659Z,15.90
2024-01-17T12:34:57.312Z,14.63
2024-01-17T12:37:23.993Z,15.85
2024-01-17T12:39:50.471Z,16.40
2024-01-17T12:42:20.341Z,16.52
2024-01-17T12:44:47.685Z,17.40
2024-01-17T12:47:14.506Z,21.60
2024-01-17T12:49:41.079Z,16.30
2024-01-17T12:52:07.629Z,19.70
2024-01-17T12:54:34.305Z,20.02
2024-01-17T12:57:02.485Z,19.55
2024-01-17T12:59:29.056Z,16.92
2024-01-17T13:01:58.705Z,15.90
2024-01-17T13:04:25.607Z,16.50
2024-01-17T13:06:58.471Z,16.48
2024-01-17T13:09:31.071Z,17.15
2024-01-17T13:11:57.991Z,13.30
2024-01-17T13:14:25.598Z,14.70
2024-01-17T13:16:52.620Z,14.25
2024-01-17T13:19:20.716Z,16.48
2024-01-17T13:21:51.026Z,15.18
2024-01-17T13:24:17.897Z,16.13
2024-01-17T13:26:45.488Z,11.85
2024-01-17T13:29:14.200Z,12.30
2024-01-17T13:31:42.540Z,11.57
2024-01-17T13:34:09.380Z,10.80
2024-01-17T13:36:36.225Z,12.05
2024-01-17T13:39:04.402Z,9.82
2024-01-17T13:41:32.779Z,8.85
2024-01-17T13:43:59.341Z,8.25
2024-01-17T13:46:27.436Z,9.50
2024-01-17T13:48:54.674Z,9.00
2024-01-17T13:51:23.760Z,9.32
2024-01-17T13:53:54.580Z,9.18
2024-01-17T13:56:21.431Z,8.65
2024-01-17T13:58:47.933Z,8.80
2024-01-17T14:01:19.535Z,8.25
2024-01-17T14:03:47.142Z,7.93
2024-01-17T14:06:15.652Z,13.90
2024-01-17T14:08:42.553Z,9.88
2024-01-17T14:11:12.571Z,14.57
2024-01-17T14:13:39.268Z,14.02
2024-01-17T14:16:05.833Z,13.45
2024-01-17T14:18:32.312Z,13.52
2024-01-17T14:20:58.816Z,12.18
2024-01-17T14:23:25.393Z,12.98
2024-01-17T14:25:51.886Z,14.00
2024-01-17T14:28:18.417Z,13.20
2024-01-17T14:30:44.868Z,11.90
2024-01-17T14:33:11.497Z,11.70
2024-01-17T14:35:39.291Z,11.55
2024-01-17T14:38:06.165Z,11.38
2024-01-17T14:40:32.719Z,10.68
2024-01-17T14:42:59.365Z,10.85
2024-01-17T14:45:25.968Z,10.77
2024-01-17T14:47:52.660Z,10.68
2024-01-17T14:50:19.225Z,12.02
2024-01-17T14:52:46.648Z,11.32
2024-01-17T14:55:13.387Z,12.00
2024-01-17T14:57:39.981Z,12.10
2024-01-17T15:00:08.046Z,12.35
2024-01-17T15:02:34.922Z,12.32
2024-01-17T15:05:01.582Z,11.70
2024-01-17T15:07:30.187Z,12.68
2024-01-17T15:09:57.048Z,11.32
2024-01-17T15:12:23.968Z,12.80
2024-01-17T15:14:50.499Z,12.07
2024-01-17T15:17:17.059Z,12.93
2024-01-17T15:19:43.582Z,11.88
2024-01-17T15:22:10.107Z,14.25
2024-01-17T15:24:36.548Z,12.98
2024-01-17T15:27:03.375Z,14.35
2024-01-17T15:29:30.512Z,13.13
2024-01-17T15:31:57.189Z,11.73
2024-01-17T15:34:23.699Z,13.27
2024-01-17T15:36:50.665Z,13.55
2024-01-17T15:39:20.429Z,15.23
2024-01-17T15:41:47.251Z,15.25
2024-01-17T15:44:13.856Z,17.08
2024-01-17T15:46:40.336Z,16.02
2024-01-17T15:49:06.880Z,15.88
2024-01-17T15:51:33.558Z,17.67
2024-01-17T15:54:00.017Z,18.90
2024-01-17T15:56:26.726Z,19.38
2024-01-17T15:58:53.288Z,17.77
2024-01-17T16:01:20.177Z,19.35
2024-01-17T16:03:47.459Z,18.90
2024-01-17T16:06:14.161Z,19.65
2024-01-17T16:08:40.771Z,18.17
2024-01-17T16:11:08.018Z,18.85
2024-01-17T16:13:37.493Z,17.58
2024-01-17T16:16:14.831Z,18.88
2024-01-17T16:18:45.371Z,17.95
2024-01-17T16:21:13.522Z,17.50
2024-01-17T16:23:45.022Z,17.35
2024-01-17T16:26:12.431Z,17.08
2024-01-17T16:28:40.401Z,17.70
2024-01-17T16:31:10.099Z,17.38
2024-01-17T16:33:37.486Z,15.10
2024-01-17T16:36:05.168Z,14.48
2024-01-17T16:38:31.858Z,13.43
2024-01-17T16:40:58.651Z,13.60
2024-01-17T16:43:25.192Z,12.40
2024-01-17T16:45:53.916Z,13.00
2024-01-17T16:48:20.639Z,11.45
2024-01-17T16:50:47.267Z,10.82
2024-01-17T16:53:15.209Z,11.63
2024-01-17T16:55:41.826Z,10.70
2024-01-17T16:58:08.312Z,9.70
2024-01-17T17:00:34.964Z,10.52
2024-01-17T17:03:01.602Z,9.77
2024-01-17T17:05:28.180Z,10.70
2024-01-17T17:07:54.980Z,11.68
2024-01-17T17:10:22.810Z,10.30
2024-01-17T17:12:49.302Z,10.82
2024-01-17T17:15:15.789Z,11.30
2024-01-17T17:17:42.603Z,10.95
2024-01-17T17:20:10.095Z,10.85
2024-01-17T17:22:38.442Z,11.23
2024-01-17T17:25:06.624Z,11.20
2024-01-17T17:27:33.269Z,11.20
2024-01-17T17:29:59.977Z,11.27
2024-01-17T17:32:26.631Z,12.70
2024-01-17T17:34:54.185Z,14.02
2024-01-17T17:37:22.773Z,12.25
2024-01-17T17:39:49.355Z,11.32
2024-01-17T17:42:15.970Z,13.48
2024-01-17T17:44:42.620Z,12.35
2024-01-17T17:47:10.685Z,11.73
2024-01-17T17:49:38.723Z,12.23
2024-01-17T17:52:05.757Z,11.98
2024-01-17T17:54:32.532Z,11.98
2024-01-17T17:57:00.690Z,11.65
2024-01-17T17:59:27.425Z,11.18
2024-01-17T18:01:54.125Z,10.80
2024-01-17T18:04:25.380Z,10.73
2024-01-17T18:09:19.445Z,10.43
2024-01-17T18:11:46.096Z,9.90
2024-01-17T18:14:12.769Z,9.93
2024-01-17T18:16:39.232Z,9.23
2024-01-17T18:19:06.049Z,10.05
2024-01-17T18:21:36.365Z,10.07
2024-01-17T18:24:02.830Z,9.35
2024-01-17T18:26:29.286Z,9.10
2024-01-17T18:28:55.721Z,10.25
2024-01-17T18:31:22.169Z,9.60
2024-01-17T18:33:48.836Z,9.02
2024-01-17T18:36:15.459Z,9.02
2024-01-17T18:38:41.995Z,8.50
2024-01-17T18:41:09.270Z,9.38
2024-01-17T18:43:38.025Z,9.85
2024-01-17T18:46:05.600Z,9.45
2024-01-17T18:48:32.215Z,7.80
2024-01-17T18:50:59.485Z,8.25
2024-01-17T18:53:25.993Z,8.95
2024-01-17T18:55:53.862Z,8.60
2024-01-17T18:58:20.307Z,8.63
2024-01-17T19:00:46.935Z,8.75
2024-01-17T19:03:13.639Z,8.10
2024-01-17T19:05:40.238Z,7.40
2024-01-17T19:08:07.496Z,8.07
2024-01-17T19:10:33.971Z,8.70
2024-01-17T19:13:00.766Z,8.73
2024-01-17T19:15:29.269Z,7.75
2024-01-17T19:17:56.889Z,7.55
2024-01-17T19:20:23.541Z,7.60
2024-01-17T19:22:50.381Z,8.07
2024-01-17T19:25:19.672Z,7.55
2024-01-17T19:27:47.343Z,6.55
2024-01-17T19:30:16.975Z,7.40
2024-01-17T19:32:44.763Z,7.20
2024-01-17T19:35:13.341Z,7.55
2024-01-17T19:37:44.544Z,7.22
2024-01-17T19:40:12.185Z,6.80
2024-01-17T19:42:39.085Z,6.50
2024-01-17T19:45:06.336Z,6.68
2024-01-17T19:47:32.849Z,6.50
2024-01-17T19:49:59.591Z,6.80
2024-01-17T19:52:26.642Z,6.63
2024-01-17T19:54:53.111Z,6.82
2024-01-17T19:57:19.983Z,6.25
2024-01-17T19:59:46.640Z,7.05
2024-01-17T20:02:13.106Z,7.00
2024-01-17T20:04:39.788Z,5.60
2024-01-17T20:07:06.874Z,6.35
2024-01-17T20:09:33.728Z,5.97
2024-01-17T20:12:01.295Z,5.75
2024-01-17T20:14:28.294Z,5.80
2024-01-17T20:16:54.944Z,6.15
2024-01-17T20:19:21.803Z,6.45
2024-01-17T20:21:51.140Z,6.38
2024-01-17T20:24:18.055Z,5.97
2024-01-17T20:26:44.882Z,7.35
2024-01-17T20:29:12.211Z,6.65
2024-01-17T20:31:39.556Z,6.75
2024-01-17T20:34:07.233Z,7.25
2024-01-17T20:36:34.124Z,7.22
2024-01-17T20:39:00.723Z,7.60
2024-01-17T20:41:27.236Z,6.93
2024-01-17T20:43:53.811Z,7.43
2024-01-17T20:46:20.382Z,6.20
2024-01-17T20:48:47.205Z,6.55
2024-01-17T20:51:26.699Z,6.90
2024-01-17T20:53:53.962Z,7.63
2024-01-17T20:56:22.268Z,7.35
2024-01-17T20:58:49.484Z,6.82
2024-01-17T21:01:16.137Z,6.35
2024-01-17T21:03:42.819Z,7.32
2024-01-17T21:06:09.485Z,7.72
2024-01-17T21:08:36.039Z,7.03
2024-01-17T21:11:02.490Z,7.50
2024-01-17T21:13:28.929Z,6.63
2024-01-17T21:15:55.667Z,7.53
2024-01-17T21:18:22.368Z,7.65
2024-01-17T21:20:49.140Z,7.15
2024-01-17T21:23:17.580Z,7.45
2024-01-17T21:25:44.325Z,7.45
2024-01-17T21:28:10.843Z,7.90
2024-01-17T21:30:37.448Z,6.90
2024-01-17T21:33:04.566Z,7.05
2024-01-17T21:35:31.494Z,7.63
2024-01-17T21:37:57.983Z,7.82
2024-01-17T21:40:24.407Z,8.23
2024-01-17T21:42:50.936Z,8.23
2024-01-17T21:45:17.407Z,7.95
2024-01-17T21:47:43.923Z,8.32
2024-01-17T21:50:11.080Z,8.57
2024-01-17T21:52:37.825Z,8.70
2024-01-17T21:55:04.591Z,8.40
2024-01-17T21:57:31.211Z,9.70
2024-01-17T21:59:57.806Z,9.23
2024-01-17T22:02:24.358Z,8.80
2024-01-17T22:04:50.943Z,8.75
2024-01-17T22:07:17.663Z,8.57
2024-01-17T22:09:44.374Z,8.80
2024-01-17T22:12:10.908Z,8.48
2024-01-17T22:14:37.441Z,7.40
2024-01-17T22:17:04.120Z,8.10
2024-01-17T22:19:30.704Z,7.82
2024-01-17T22:21:57.164Z,8.00
2024-01-17T22:24:23.709Z,7.57
2024-01-17T22:26:50.285Z,7.43
2024-01-17T22:29:16.852Z,8.07
2024-01-17T22:31:43.352Z,8.45
2024-01-17T22:34:09.941Z,7.22
2024-01-17T22:36:36.670Z,8.13
2024-01-17T22:39:03.437Z,7.60
2024-01-17T22:41:30.238Z,8.07
2024-01-17T22:43:57.190Z,7.22
2024-01-17T22:46:23.731Z,7.55
2024-01-17T22:48:50.406Z,7.20
2024-01-17T22:51:18.068Z,7.05
2024-01-17T22:53:44.658Z,7.30
2024-01-17T22:56:14.490Z,6.97
2024-01-17T22:58:43.014Z,6.93
2024-01-17T23:01:09.517Z,7.57
2024-01-17T23:03:36.087Z,7.32
2024-01-17T23:06:03.337Z,6.88
2024-01-17T23:08:29.874Z,7.65
2024-01-17T23:10:57.944Z,6.43
2024-01-17T23:13:29.382Z,7.00
2024-01-17T23:15:57.345Z,8.15
2024-01-17T23:18:23.943Z,6.72
2024-01-17T23:20:50.467Z,7.28
2024-01-17T23:23:16.933Z,27.70
2024-01-17T23:25:43.396Z,6.15
2024-01-17T23:28:09.875Z,7.53
2024-01-17T23:30:36.494Z,8.55
2024-01-17T23:33:03.681Z,5.82
2024-01-17T23:35:30.214Z,5.72
2024-01-17T23:37:56.672Z,5.55
2024-01-17T23:40:23.135Z,5.20
2024-01-17T23:42:49.796Z,5.20
2024-01-17T23:45:16.476Z,5.65
2024-01-17T23:47:43.007Z,5.70
2024-01-17T23:50:10.886Z,5.15
2024-01-17T23:52:37.451Z,5.22
2024-01-17T23:55:04.269Z,5.15
2024-01-17T23:57:30.945Z,5.38
2024-01-17T23:59:57.436Z,5.20
